createdAt,value
2017-10-11T00:00:48.046Z,968.74
2017-10-11T00:01:57.081Z,968.74
2017-10-11T00:03:06.443Z,968.73
2017-10-11T00:04:15.471Z,968.73
2017-10-11T00:05:24.511Z,968.69
2017-10-11T00:06:33.867Z,968.72
2017-10-11T00:07:42.896Z,968.76
2017-10-11T00:08:52.253Z,968.77
2017-10-11T00:10:01.282Z,968.74
2017-10-11T00:11:10.309Z,968.75
2017-10-11T00:12:19.024Z,968.73
2017-10-11T00:13:28.713Z,968.71
2017-10-11T00:14:37.737Z,968.72
2017-10-11T00:15:47.432Z,968.74
2017-10-11T00:16:56.468Z,968.7
2017-10-11T00:18:06.163Z,968.73
2017-10-11T00:19:14.857Z,968.76
2017-10-11T00:20:24.218Z,968.72
2017-10-11T00:21:33.245Z,968.73
2017-10-11T00:22:42.606Z,968.73
2017-10-11T00:23:51.301Z,968.71
2017-10-11T00:24:59.995Z,968.7
2017-10-11T00:26:09.353Z,968.76
2017-10-11T00:27:18.048Z,968.75
2017-10-11T00:28:27.409Z,968.74
2017-10-11T00:29:36.104Z,968.76
2017-10-11T00:30:45.793Z,968.75
2017-10-11T00:31:54.814Z,968.77
2017-10-11T00:33:03.839Z,968.75
2017-10-11T00:34:12.863Z,968.77
2017-10-11T00:35:21.555Z,968.73
2017-10-11T00:36:30.910Z,968.75
2017-10-11T00:37:40.273Z,968.74
2017-10-11T00:38:49.624Z,968.72
2017-10-11T00:39:59.318Z,968.69
2017-10-11T00:41:08.008Z,968.72
2017-10-11T00:42:17.714Z,968.69
2017-10-11T00:43:26.735Z,968.67
2017-10-11T00:44:35.768Z,968.63
2017-10-11T00:45:45.126Z,968.71
2017-10-11T00:46:54.488Z,968.66
2017-10-11T00:48:03.522Z,968.67
2017-10-11T00:49:13.229Z,968.65
2017-10-11T00:50:22.274Z,968.64
2017-10-11T00:51:30.965Z,968.68
2017-10-11T00:52:39.989Z,968.63
2017-10-11T00:53:49.345Z,968.65
2017-10-11T00:54:58.372Z,968.61
2017-10-11T00:56:08.062Z,968.59
2017-10-11T00:57:17.088Z,968.54
2017-10-11T00:58:26.115Z,968.55
2017-10-11T00:59:35.146Z,968.55
2017-10-11T01:00:43.844Z,968.53
2017-10-11T01:01:53.211Z,968.48
2017-10-11T01:03:02.572Z,968.46
2017-10-11T01:04:11.939Z,968.46
2017-10-11T01:05:20.634Z,968.48
2017-10-11T01:06:29.662Z,968.49
2017-10-11T01:07:39.359Z,968.49
2017-10-11T01:08:48.048Z,968.52
2017-10-11T01:09:57.411Z,968.51
2017-10-11T01:11:06.770Z,968.51
2017-10-11T01:12:15.802Z,968.5
2017-10-11T01:13:24.833Z,968.52
2017-10-11T01:14:34.201Z,968.54
2017-10-11T01:15:43.234Z,968.52
2017-10-11T01:16:52.608Z,968.52
2017-10-11T01:18:01.304Z,968.53
2017-10-11T01:19:09.997Z,968.57
2017-10-11T01:20:19.023Z,968.56
2017-10-11T01:21:28.386Z,968.57
2017-10-11T01:22:38.076Z,968.54
2017-10-11T01:23:47.104Z,968.57
2017-10-11T01:24:56.470Z,968.61
2017-10-11T01:26:05.498Z,968.57
2017-10-11T01:27:14.856Z,968.52
2017-10-11T01:28:23.550Z,968.49
2017-10-11T01:29:32.581Z,968.49
2017-10-11T01:30:41.266Z,968.52
2017-10-11T01:31:50.621Z,968.48
2017-10-11T01:32:59.646Z,968.54
2017-10-11T01:34:08.671Z,968.51
2017-10-11T01:35:17.699Z,968.48
2017-10-11T01:36:26.394Z,968.49
2017-10-11T01:37:35.088Z,968.46
2017-10-11T01:38:44.779Z,968.44
2017-10-11T01:39:53.477Z,968.47
2017-10-11T01:41:02.504Z,968.46
2017-10-11T01:42:11.535Z,968.41
2017-10-11T01:43:20.566Z,968.46
2017-10-11T01:44:30.270Z,968.51
2017-10-11T01:45:40.290Z,968.47
2017-10-11T01:46:49.318Z,968.48
2017-10-11T01:47:58.346Z,968.49
2017-10-11T01:49:07.376Z,968.5
2017-10-11T01:50:16.403Z,968.52
2017-10-11T01:51:26.423Z,968.48
2017-10-11T01:52:35.121Z,968.51
2017-10-11T01:53:44.482Z,968.48
2017-10-11T01:54:53.523Z,968.53
2017-10-11T01:56:02.197Z,968.49
2017-10-11T01:57:10.889Z,968.5
2017-10-11T01:58:19.583Z,968.48
2017-10-11T01:59:28.945Z,968.43
2017-10-11T02:00:38.302Z,968.41
2017-10-11T02:01:46.994Z,968.43
2017-10-11T02:02:56.021Z,968.42
2017-10-11T02:04:04.712Z,968.45
2017-10-11T02:05:13.739Z,968.49
2017-10-11T02:06:23.097Z,968.52
2017-10-11T02:07:32.119Z,968.48
2017-10-11T02:08:40.818Z,968.5
2017-10-11T02:09:49.835Z,968.46
2017-10-11T02:10:59.524Z,968.49
2017-10-11T02:12:08.218Z,968.49
2017-10-11T02:13:16.919Z,968.49
2017-10-11T02:14:25.938Z,968.48
2017-10-11T02:15:35.319Z,968.46
2017-10-11T02:16:44.319Z,968.44
2017-10-11T02:17:53.010Z,968.43
2017-10-11T02:19:02.363Z,968.43
2017-10-11T02:20:11.723Z,968.46
2017-10-11T02:21:20.747Z,968.44
2017-10-11T02:22:30.440Z,968.49
2017-10-11T02:23:39.471Z,968.43
2017-10-11T02:24:48.491Z,968.46
2017-10-11T02:25:57.186Z,968.45
2017-10-11T02:27:06.543Z,968.47
2017-10-11T02:28:15.899Z,968.45
2017-10-11T02:29:25.588Z,968.47
2017-10-11T02:30:34.945Z,968.48
2017-10-11T02:31:43.639Z,968.46
2017-10-11T02:32:53.330Z,968.49
2017-10-11T02:34:02.686Z,968.46
2017-10-11T02:35:12.044Z,968.48
2017-10-11T02:36:21.414Z,968.46
2017-10-11T02:37:30.438Z,968.47
2017-10-11T02:38:39.812Z,968.47
2017-10-11T02:39:49.174Z,968.48
2017-10-11T02:40:58.531Z,968.47
2017-10-11T02:42:07.906Z,968.49
2017-10-11T02:43:16.931Z,968.51
2017-10-11T02:44:26.299Z,968.49
2017-10-11T02:45:35.320Z,968.5
2017-10-11T02:46:44.012Z,968.43
2017-10-11T02:47:53.371Z,968.46
2017-10-11T02:49:02.402Z,968.49
2017-10-11T02:50:11.427Z,968.54
2017-10-11T02:51:20.842Z,968.5
2017-10-11T02:52:30.532Z,968.52
2017-10-11T02:53:39.555Z,968.5
2017-10-11T02:54:48.927Z,968.5
2017-10-11T02:55:58.634Z,968.51
2017-10-11T02:57:07.998Z,968.49
2017-10-11T02:58:16.691Z,968.48
2017-10-11T02:59:25.397Z,968.5
2017-10-11T03:00:35.087Z,968.55
2017-10-11T03:01:44.122Z,968.55
2017-10-11T03:02:54.151Z,968.53
2017-10-11T03:04:03.176Z,968.54
2017-10-11T03:05:12.860Z,968.51
2017-10-11T03:06:21.888Z,968.5
2017-10-11T03:07:30.579Z,968.51
2017-10-11T03:08:39.274Z,968.48
2017-10-11T03:09:48.632Z,968.47
2017-10-11T03:10:57.326Z,968.42
2017-10-11T03:12:06.023Z,968.42
2017-10-11T03:13:14.715Z,968.45
2017-10-11T03:14:24.079Z,968.46
2017-10-11T03:15:33.441Z,968.45
2017-10-11T03:16:42.473Z,968.45
2017-10-11T03:17:51.501Z,968.39
2017-10-11T03:19:01.201Z,968.47
2017-10-11T03:20:09.887Z,968.42
2017-10-11T03:21:19.241Z,968.46
2017-10-11T03:22:29.273Z,968.51
2017-10-11T03:23:38.629Z,968.42
2017-10-11T03:24:47.321Z,968.43
2017-10-11T03:25:56.017Z,968.44
2017-10-11T03:27:05.378Z,968.49
2017-10-11T03:28:14.074Z,968.46
2017-10-11T03:29:23.100Z,968.5
2017-10-11T03:30:32.803Z,968.43
2017-10-11T03:31:41.823Z,968.48
2017-10-11T03:32:51.177Z,968.5
2017-10-11T03:34:00.535Z,968.48
2017-10-11T03:35:09.889Z,968.51
2017-10-11T03:36:18.584Z,968.49
2017-10-11T03:37:27.606Z,968.51
2017-10-11T03:38:36.302Z,968.47
2017-10-11T03:39:44.992Z,968.49
2017-10-11T03:40:55.015Z,968.47
2017-10-11T03:42:04.046Z,968.45
2017-10-11T03:43:13.406Z,968.44
2017-10-11T03:44:22.101Z,968.46
2017-10-11T03:45:31.120Z,968.5
2017-10-11T03:46:40.483Z,968.49
2017-10-11T03:47:49.845Z,968.51
2017-10-11T03:48:58.535Z,968.53
2017-10-11T03:50:07.234Z,968.51
2017-10-11T03:51:16.601Z,968.5
2017-10-11T03:52:25.623Z,968.42
2017-10-11T03:53:34.321Z,968.46
2017-10-11T03:54:43.354Z,968.49
2017-10-11T03:55:52.039Z,968.5
2017-10-11T03:57:01.724Z,968.47
2017-10-11T03:58:10.420Z,968.4
2017-10-11T03:59:19.114Z,968.39
2017-10-11T04:00:28.139Z,968.48
2017-10-11T04:01:37.160Z,968.42
2017-10-11T04:02:45.854Z,968.46
2017-10-11T04:03:54.880Z,968.47
2017-10-11T04:05:03.579Z,968.47
2017-10-11T04:06:12.938Z,968.46
2017-10-11T04:07:22.308Z,968.52
2017-10-11T04:08:31.665Z,968.49
2017-10-11T04:09:40.361Z,968.47
2017-10-11T04:10:49.741Z,968.48
2017-10-11T04:11:58.780Z,968.41
2017-10-11T04:13:07.813Z,968.49
2017-10-11T04:14:16.508Z,968.38
2017-10-11T04:15:25.529Z,968.37
2017-10-11T04:16:34.552Z,968.41
2017-10-11T04:17:43.578Z,968.41
2017-10-11T04:18:53.267Z,968.42
2017-10-11T04:20:01.960Z,968.41
2017-10-11T04:21:10.992Z,968.43
2017-10-11T04:22:20.014Z,968.42
2017-10-11T04:23:29.042Z,968.44
2017-10-11T04:24:37.740Z,968.41
2017-10-11T04:25:46.770Z,968.39
2017-10-11T04:26:55.462Z,968.36
2017-10-11T04:28:04.485Z,968.32
2017-10-11T04:29:13.522Z,968.37
2017-10-11T04:30:22.880Z,968.3
2017-10-11T04:31:32.241Z,968.29
2017-10-11T04:32:40.937Z,968.32
2017-10-11T04:33:49.966Z,968.29
2017-10-11T04:34:58.655Z,968.35
2017-10-11T04:36:07.683Z,968.29
2017-10-11T04:37:16.718Z,968.33
2017-10-11T04:38:25.413Z,968.32
2017-10-11T04:39:34.105Z,968.32
2017-10-11T04:40:42.799Z,968.3
2017-10-11T04:41:51.828Z,968.31
2017-10-11T04:43:01.182Z,968.27
2017-10-11T04:44:10.539Z,968.29
2017-10-11T04:45:19.903Z,968.29
2017-10-11T04:46:28.597Z,968.25
2017-10-11T04:47:37.290Z,968.3
2017-10-11T04:48:46.318Z,968.3
2017-10-11T04:49:55.340Z,968.34
2017-10-11T04:51:04.832Z,968.31
2017-10-11T04:52:13.857Z,968.31
2017-10-11T04:53:23.216Z,968.38
2017-10-11T04:54:32.570Z,968.32
2017-10-11T04:55:41.592Z,968.35
2017-10-11T04:56:50.620Z,968.33
2017-10-11T04:57:59.988Z,968.32
2017-10-11T04:59:09.353Z,968.35
2017-10-11T05:00:18.719Z,968.31
2017-10-11T05:01:27.750Z,968.29
2017-10-11T05:02:37.109Z,968.26
2017-10-11T05:03:46.803Z,968.28
2017-10-11T05:04:55.828Z,968.26
2017-10-11T05:06:05.522Z,968.25
2017-10-11T05:07:14.214Z,968.27
2017-10-11T05:08:23.571Z,968.3
2017-10-11T05:09:32.596Z,968.29
2017-10-11T05:10:41.958Z,968.29
2017-10-11T05:11:50.648Z,968.31
2017-10-11T05:13:00.001Z,968.33
2017-10-11T05:14:09.028Z,968.3
2017-10-11T05:15:18.388Z,968.36
2017-10-11T05:16:27.423Z,968.29
2017-10-11T05:17:36.448Z,968.29
2017-10-11T05:18:45.142Z,968.28
2017-10-11T05:19:54.170Z,968.29
2017-10-11T05:21:03.195Z,968.25
2017-10-11T05:22:12.218Z,968.28
2017-10-11T05:23:20.909Z,968.27
2017-10-11T05:24:29.933Z,968.29
2017-10-11T05:25:39.623Z,968.3
2017-10-11T05:26:48.649Z,968.29
2017-10-11T05:27:57.672Z,968.32
2017-10-11T05:29:06.697Z,968.34
2017-10-11T05:30:15.717Z,968.31
2017-10-11T05:31:24.739Z,968.33
2017-10-11T05:32:34.101Z,968.34
2017-10-11T05:33:43.120Z,968.31
2017-10-11T05:34:52.479Z,968.33
2017-10-11T05:36:01.174Z,968.33
2017-10-11T05:37:10.196Z,968.31
2017-10-11T05:38:18.892Z,968.3
2017-10-11T05:39:27.585Z,968.27
2017-10-11T05:40:36.285Z,968.3
2017-10-11T05:41:45.973Z,968.34
2017-10-11T05:42:55.005Z,968.36
2017-10-11T05:44:04.030Z,968.34
2017-10-11T05:45:13.057Z,968.36
2017-10-11T05:46:22.418Z,968.36
2017-10-11T05:47:31.774Z,968.39
2017-10-11T05:48:41.135Z,968.43
2017-10-11T05:49:49.832Z,968.34
2017-10-11T05:50:59.520Z,968.39
2017-10-11T05:52:08.873Z,968.4
2017-10-11T05:53:17.896Z,968.39
2017-10-11T05:54:26.588Z,968.4
2017-10-11T05:55:35.279Z,968.4
2017-10-11T05:56:44.304Z,968.36
2017-10-11T05:57:53.001Z,968.46
2017-10-11T05:59:02.040Z,968.41
2017-10-11T06:00:11.085Z,968.43
2017-10-11T06:01:20.418Z,968.44
2017-10-11T06:02:29.109Z,968.5
2017-10-11T06:03:38.478Z,968.43
2017-10-11T06:04:47.840Z,968.5
2017-10-11T06:05:57.529Z,968.47
2017-10-11T06:07:06.221Z,968.47
2017-10-11T06:08:15.246Z,968.49
2017-10-11T06:09:23.936Z,968.47
2017-10-11T06:10:32.957Z,968.46
2017-10-11T06:11:41.653Z,968.52
2017-10-11T06:12:50.679Z,968.51
2017-10-11T06:13:59.707Z,968.46
2017-10-11T06:15:08.401Z,968.47
2017-10-11T06:16:17.099Z,968.52
2017-10-11T06:17:26.796Z,968.52
2017-10-11T06:18:36.228Z,968.53
2017-10-11T06:19:45.251Z,968.55
2017-10-11T06:20:54.284Z,968.5
2017-10-11T06:22:03.981Z,968.56
2017-10-11T06:23:13.333Z,968.57
2017-10-11T06:24:22.389Z,968.52
2017-10-11T06:25:31.389Z,968.49
2017-10-11T06:26:40.418Z,968.55
2017-10-11T06:27:49.771Z,968.51
2017-10-11T06:28:59.136Z,968.52
2017-10-11T06:30:08.163Z,968.55
2017-10-11T06:31:16.859Z,968.58
2017-10-11T06:32:25.555Z,968.56
2017-10-11T06:33:34.246Z,968.62
2017-10-11T06:34:43.605Z,968.62
2017-10-11T06:35:53.303Z,968.61
2017-10-11T06:37:01.989Z,968.58
2017-10-11T06:38:11.347Z,968.57
2017-10-11T06:39:20.373Z,968.61
2017-10-11T06:40:30.075Z,968.59
2017-10-11T06:41:39.759Z,968.63
2017-10-11T06:42:49.462Z,968.61
2017-10-11T06:43:58.489Z,968.62
2017-10-11T06:45:07.869Z,968.61
2017-10-11T06:46:16.558Z,968.6
2017-10-11T06:47:25.251Z,968.64
2017-10-11T06:48:34.301Z,968.59
2017-10-11T06:49:43.329Z,968.55
2017-10-11T06:50:52.357Z,968.59
2017-10-11T06:52:01.055Z,968.56
2017-10-11T06:53:10.084Z,968.6
2017-10-11T06:54:18.777Z,968.59
2017-10-11T06:55:27.800Z,968.61
2017-10-11T06:56:37.149Z,968.61
2017-10-11T06:57:46.175Z,968.63
2017-10-11T06:58:54.872Z,968.62
2017-10-11T07:00:03.565Z,968.62
2017-10-11T07:01:12.588Z,968.56
2017-10-11T07:02:21.612Z,968.68
2017-10-11T07:03:30.632Z,968.64
2017-10-11T07:04:39.998Z,968.65
2017-10-11T07:05:49.026Z,968.67
2017-10-11T07:06:58.051Z,968.62
2017-10-11T07:08:06.743Z,968.63
2017-10-11T07:09:15.434Z,968.67
2017-10-11T07:10:24.461Z,968.71
2017-10-11T07:11:33.160Z,968.72
2017-10-11T07:12:42.179Z,968.69
2017-10-11T07:13:51.214Z,968.67
2017-10-11T07:15:01.234Z,968.65
2017-10-11T07:16:09.927Z,968.74
2017-10-11T07:17:18.629Z,968.69
2017-10-11T07:18:27.987Z,968.72
2017-10-11T07:19:37.017Z,968.74
2017-10-11T07:20:46.052Z,968.73
2017-10-11T07:21:55.079Z,968.73
2017-10-11T07:23:04.771Z,968.73
2017-10-11T07:24:13.796Z,968.74
2017-10-11T07:25:22.819Z,968.75
2017-10-11T07:26:31.515Z,968.74
2017-10-11T07:27:41.210Z,968.84
2017-10-11T07:28:49.906Z,968.81
2017-10-11T07:29:59.263Z,968.86
2017-10-11T07:31:08.631Z,968.83
2017-10-11T07:32:18.324Z,968.91
2017-10-11T07:33:27.019Z,968.9
2017-10-11T07:34:36.386Z,968.84
2017-10-11T07:35:45.410Z,968.89
2017-10-11T07:36:54.770Z,968.89
2017-10-11T07:38:04.126Z,968.89
2017-10-11T07:39:13.480Z,968.93
2017-10-11T07:40:22.536Z,968.96
2017-10-11T07:41:32.001Z,968.9
2017-10-11T07:42:40.691Z,968.92
2017-10-11T07:43:50.383Z,968.91
2017-10-11T07:44:59.079Z,968.86
2017-10-11T07:46:08.783Z,968.83
2017-10-11T07:47:18.149Z,968.86
2017-10-11T07:48:27.181Z,968.9
2017-10-11T07:49:35.874Z,968.85
2017-10-11T07:50:44.571Z,968.87
2017-10-11T07:51:53.600Z,968.85
2017-10-11T07:53:02.961Z,968.86
2017-10-11T07:54:12.376Z,968.85
2017-10-11T07:55:21.755Z,968.78
2017-10-11T07:56:30.511Z,968.79
2017-10-11T07:57:39.540Z,968.82
2017-10-11T07:58:48.564Z,968.88
2017-10-11T07:59:57.596Z,968.82
2017-10-11T08:01:06.619Z,968.85
2017-10-11T08:02:16.081Z,968.81
2017-10-11T08:03:25.105Z,968.78
2017-10-11T08:04:33.804Z,968.87
2017-10-11T08:05:42.905Z,968.83
2017-10-11T08:06:51.597Z,968.81
2017-10-11T08:08:00.950Z,968.89
2017-10-11T08:09:10.309Z,968.86
2017-10-11T08:10:19.335Z,968.91
2017-10-11T08:11:28.034Z,968.87
2017-10-11T08:12:37.062Z,968.86
2017-10-11T08:13:45.763Z,968.87
2017-10-11T08:14:55.126Z,968.89
2017-10-11T08:16:05.149Z,968.89
2017-10-11T08:17:13.845Z,968.91
2017-10-11T08:18:22.538Z,968.94
2017-10-11T08:19:31.901Z,968.89
2017-10-11T08:20:40.925Z,968.94
2017-10-11T08:21:50.285Z,968.92
2017-10-11T08:22:58.980Z,968.94
2017-10-11T08:24:08.016Z,968.95
2017-10-11T08:25:17.372Z,968.95
2017-10-11T08:26:26.395Z,969.01
2017-10-11T08:27:35.421Z,968.96
2017-10-11T08:28:44.782Z,968.92
2017-10-11T08:29:54.146Z,968.98
2017-10-11T08:31:03.502Z,968.95
2017-10-11T08:32:12.200Z,968.95
2017-10-11T08:33:21.230Z,968.96
2017-10-11T08:34:30.598Z,968.95
2017-10-11T08:35:39.611Z,968.92
2017-10-11T08:36:48.635Z,968.95
2017-10-11T08:37:57.662Z,968.97
2017-10-11T08:39:06.364Z,968.98
2017-10-11T08:40:16.060Z,969
2017-10-11T08:41:24.752Z,968.95
2017-10-11T08:42:33.775Z,968.98
2017-10-11T08:43:42.474Z,968.99
2017-10-11T08:44:52.166Z,969.01
2017-10-11T08:46:01.191Z,968.96
2017-10-11T08:47:10.551Z,969
2017-10-11T08:48:19.246Z,968.98
2017-10-11T08:49:28.600Z,968.99
2017-10-11T08:50:37.633Z,969.01
2017-10-11T08:51:46.326Z,968.96
2017-10-11T08:52:55.021Z,968.95
2017-10-11T08:54:04.048Z,968.94
2017-10-11T08:55:12.744Z,969
2017-10-11T08:56:21.775Z,968.94
2017-10-11T08:57:31.470Z,968.99
2017-10-11T08:58:40.510Z,968.99
2017-10-11T08:59:49.201Z,968.98
2017-10-11T09:00:58.558Z,968.95
2017-10-11T09:02:07.582Z,969
2017-10-11T09:03:16.276Z,969.02
2017-10-11T09:04:25.308Z,968.95
2017-10-11T09:05:34.668Z,968.99
2017-10-11T09:06:43.699Z,968.98
2017-10-11T09:07:53.066Z,969.04
2017-10-11T09:09:02.096Z,969.01
2017-10-11T09:10:11.815Z,968.98
2017-10-11T09:11:20.891Z,969
2017-10-11T09:12:29.918Z,969.06
2017-10-11T09:13:38.946Z,969.07
2017-10-11T09:14:47.969Z,969.11
2017-10-11T09:15:57.000Z,969.07
2017-10-11T09:17:07.029Z,969.11
2017-10-11T09:18:16.385Z,969.08
2017-10-11T09:19:25.751Z,969.11
2017-10-11T09:20:35.120Z,969.1
2017-10-11T09:21:44.478Z,969.15
2017-10-11T09:22:53.838Z,969.13
2017-10-11T09:24:03.520Z,969
2017-10-11T09:25:13.210Z,969.12
2017-10-11T09:26:22.240Z,969.08
2017-10-11T09:27:31.267Z,969.08
2017-10-11T09:28:40.304Z,969.03
2017-10-11T09:29:49.009Z,969.06
2017-10-11T09:30:58.367Z,969.03
2017-10-11T09:32:07.728Z,969.05
2017-10-11T09:33:17.086Z,969.09
2017-10-11T09:34:26.446Z,969.08
2017-10-11T09:35:35.479Z,969.12
2017-10-11T09:36:44.176Z,969.08
2017-10-11T09:37:53.869Z,969.06
2017-10-11T09:39:03.575Z,969.03
2017-10-11T09:40:12.255Z,969.07
2017-10-11T09:41:21.616Z,969.03
2017-10-11T09:42:30.640Z,969.07
2017-10-11T09:43:39.670Z,969.06
2017-10-11T09:44:48.364Z,969.01
2017-10-11T09:45:57.391Z,969.01
2017-10-11T09:47:07.081Z,969
2017-10-11T09:48:16.444Z,969.05
2017-10-11T09:49:25.489Z,969.04
2017-10-11T09:50:34.525Z,969.05
2017-10-11T09:51:43.556Z,969.01
2017-10-11T09:52:52.581Z,969.02
2017-10-11T09:54:01.274Z,969
2017-10-11T09:55:10.629Z,969.03
2017-10-11T09:56:20.323Z,968.98
2017-10-11T09:57:29.349Z,969.02
2017-10-11T09:58:38.712Z,969.04
2017-10-11T09:59:48.069Z,968.95
2017-10-11T10:00:57.426Z,969.02
2017-10-11T10:02:06.123Z,969.01
2017-10-11T10:03:15.811Z,968.98
2017-10-11T10:04:25.165Z,968.99
2017-10-11T10:05:34.186Z,968.95
2017-10-11T10:06:43.207Z,969
2017-10-11T10:07:52.229Z,968.95
2017-10-11T10:09:01.258Z,968.94
2017-10-11T10:10:10.610Z,969
2017-10-11T10:11:19.965Z,968.96
2017-10-11T10:12:29.319Z,969
2017-10-11T10:13:39.006Z,969
2017-10-11T10:14:48.035Z,968.95
2017-10-11T10:15:56.733Z,968.99
2017-10-11T10:17:05.428Z,968.92
2017-10-11T10:18:15.128Z,968.98
2017-10-11T10:19:23.823Z,968.98
2017-10-11T10:20:33.183Z,968.99
2017-10-11T10:21:42.225Z,968.96
2017-10-11T10:22:50.919Z,969.01
2017-10-11T10:24:00.277Z,968.97
2017-10-11T10:25:09.301Z,969.02
2017-10-11T10:26:17.995Z,968.96
2017-10-11T10:27:27.691Z,968.94
2017-10-11T10:28:36.720Z,968.93
2017-10-11T10:29:46.083Z,968.95
2017-10-11T10:30:55.437Z,968.89
2017-10-11T10:32:04.791Z,968.89
2017-10-11T10:33:13.819Z,968.91
2017-10-11T10:34:22.516Z,968.85
2017-10-11T10:35:31.539Z,968.88
2017-10-11T10:36:40.562Z,968.86
2017-10-11T10:37:49.919Z,968.88
2017-10-11T10:38:58.618Z,968.87
2017-10-11T10:40:07.975Z,968.83
2017-10-11T10:41:17.002Z,968.85
2017-10-11T10:42:26.350Z,968.84
2017-10-11T10:43:35.049Z,968.84
2017-10-11T10:44:44.075Z,968.84
2017-10-11T10:45:52.768Z,968.88
2017-10-11T10:47:01.473Z,968.85
2017-10-11T10:48:10.189Z,968.81
2017-10-11T10:49:19.244Z,968.85
2017-10-11T10:50:28.604Z,968.84
2017-10-11T10:51:37.300Z,968.84
2017-10-11T10:52:45.992Z,968.82
2017-10-11T10:53:55.017Z,968.82
2017-10-11T10:55:04.376Z,968.83
2017-10-11T10:56:13.406Z,968.8
2017-10-11T10:57:22.783Z,968.77
2017-10-11T10:58:31.476Z,968.83
2017-10-11T10:59:41.163Z,968.79
2017-10-11T11:00:50.194Z,968.82
2017-10-11T11:01:59.552Z,968.83
2017-10-11T11:03:08.909Z,968.83
2017-10-11T11:04:17.601Z,968.8
2017-10-11T11:05:27.620Z,968.79
2017-10-11T11:06:36.645Z,968.82
2017-10-11T11:07:45.693Z,968.81
2017-10-11T11:08:54.385Z,968.74
2017-10-11T11:10:03.413Z,968.82
2017-10-11T11:11:12.438Z,968.8
2017-10-11T11:12:21.128Z,968.79
2017-10-11T11:13:29.830Z,968.8
2017-10-11T11:14:38.521Z,968.8
2017-10-11T11:15:48.216Z,968.79
2017-10-11T11:16:57.245Z,968.77
2017-10-11T11:18:05.952Z,968.78
2017-10-11T11:19:14.967Z,968.8
2017-10-11T11:20:24.000Z,968.76
2017-10-11T11:21:33.027Z,968.84
2017-10-11T11:22:42.398Z,968.76
2017-10-11T11:23:51.427Z,968.76
2017-10-11T11:25:00.125Z,968.81
2017-10-11T11:26:09.150Z,968.77
2017-10-11T11:27:18.178Z,968.74
2017-10-11T11:28:27.202Z,968.78
2017-10-11T11:29:36.559Z,968.74
2017-10-11T11:30:45.259Z,968.74
2017-10-11T11:31:54.951Z,968.73
2017-10-11T11:33:03.977Z,968.73
2017-10-11T11:34:12.673Z,968.7
2017-10-11T11:35:21.698Z,968.65
2017-10-11T11:36:30.727Z,968.69
2017-10-11T11:37:40.093Z,968.63
2017-10-11T11:38:49.459Z,968.64
2017-10-11T11:39:59.154Z,968.64
2017-10-11T11:41:07.852Z,968.64
2017-10-11T11:42:16.890Z,968.6
2017-10-11T11:43:26.249Z,968.65
2017-10-11T11:44:35.615Z,968.6
2017-10-11T11:45:44.311Z,968.59
2017-10-11T11:46:53.669Z,968.56
2017-10-11T11:48:03.032Z,968.6
2017-10-11T11:49:12.061Z,968.62
2017-10-11T11:50:21.086Z,968.6
2017-10-11T11:51:30.448Z,968.57
2017-10-11T11:52:39.810Z,968.57
2017-10-11T11:53:49.175Z,968.54
2017-10-11T11:54:58.202Z,968.56
2017-10-11T11:56:07.230Z,968.55
2017-10-11T11:57:16.253Z,968.55
2017-10-11T11:58:25.275Z,968.54
2017-10-11T11:59:33.966Z,968.53
2017-10-11T12:00:42.659Z,968.51
2017-10-11T12:01:52.020Z,968.52
2017-10-11T12:03:01.722Z,968.49
2017-10-11T12:04:10.414Z,968.45
2017-10-11T12:05:19.110Z,968.48
2017-10-11T12:06:28.135Z,968.48
2017-10-11T12:07:37.830Z,968.5
2017-10-11T12:08:46.861Z,968.47
2017-10-11T12:09:56.210Z,968.5
2017-10-11T12:11:04.903Z,968.41
2017-10-11T12:12:14.590Z,968.45
2017-10-11T12:13:24.612Z,968.4
2017-10-11T12:14:33.639Z,968.43
2017-10-11T12:15:42.333Z,968.44
2017-10-11T12:16:51.693Z,968.43
2017-10-11T12:18:01.383Z,968.47
2017-10-11T12:19:10.409Z,968.42
2017-10-11T12:20:19.769Z,968.42
2017-10-11T12:21:28.467Z,968.4
2017-10-11T12:22:38.161Z,968.34
2017-10-11T12:23:46.859Z,968.39
2017-10-11T12:24:55.921Z,968.42
2017-10-11T12:26:04.592Z,968.37
2017-10-11T12:27:13.287Z,968.43
2017-10-11T12:28:22.321Z,968.36
2017-10-11T12:29:31.689Z,968.39
2017-10-11T12:30:40.714Z,968.36
2017-10-11T12:31:49.405Z,968.38
2017-10-11T12:32:58.101Z,968.35
2017-10-11T12:34:07.146Z,968.36
2017-10-11T12:35:16.490Z,968.31
2017-10-11T12:36:25.839Z,968.34
2017-10-11T12:37:34.529Z,968.31
2017-10-11T12:38:43.886Z,968.33
2017-10-11T12:39:53.252Z,968.34
2017-10-11T12:41:01.950Z,968.27
2017-10-11T12:42:11.312Z,968.32
2017-10-11T12:43:20.336Z,968.31
2017-10-11T12:44:29.416Z,968.33
2017-10-11T12:45:38.441Z,968.31
2017-10-11T12:46:47.468Z,968.25
2017-10-11T12:47:56.494Z,968.23
2017-10-11T12:49:06.186Z,968.27
2017-10-11T12:50:15.216Z,968.28
2017-10-11T12:51:23.914Z,968.28
2017-10-11T12:52:32.605Z,968.27
2017-10-11T12:53:41.630Z,968.29
2017-10-11T12:54:50.664Z,968.31
2017-10-11T12:56:00.023Z,968.29
2017-10-11T12:57:09.044Z,968.29
2017-10-11T12:58:18.071Z,968.24
2017-10-11T12:59:26.772Z,968.22
2017-10-11T13:00:36.128Z,968.21
2017-10-11T13:01:45.160Z,968.25
2017-10-11T13:02:54.523Z,968.24
2017-10-11T13:04:03.879Z,968.2
2017-10-11T13:05:12.573Z,968.19
2017-10-11T13:06:21.602Z,968.21
2017-10-11T13:07:30.959Z,968.14
2017-10-11T13:08:40.321Z,968.13
2017-10-11T13:09:49.688Z,968.12
2017-10-11T13:10:59.045Z,968.11
2017-10-11T13:12:08.404Z,968.07
2017-10-11T13:13:17.763Z,968.09
2017-10-11T13:14:27.129Z,968.06
2017-10-11T13:15:36.492Z,968.05
2017-10-11T13:16:45.517Z,968.06
2017-10-11T13:17:54.210Z,968.08
2017-10-11T13:19:03.578Z,968.04
2017-10-11T13:20:12.607Z,968.05
2017-10-11T13:21:21.631Z,968.05
2017-10-11T13:22:30.325Z,968.02
2017-10-11T13:23:39.018Z,968.01
2017-10-11T13:24:48.715Z,967.99
2017-10-11T13:25:57.413Z,968.04
2017-10-11T13:27:06.107Z,968
2017-10-11T13:28:14.798Z,968.06
2017-10-11T13:29:23.492Z,968
2017-10-11T13:30:32.515Z,967.96
2017-10-11T13:31:41.536Z,968.01
2017-10-11T13:32:50.893Z,967.98
2017-10-11T13:33:59.605Z,967.93
2017-10-11T13:35:08.619Z,967.93
2017-10-11T13:36:17.643Z,967.89
2017-10-11T13:37:26.670Z,967.91
2017-10-11T13:38:35.702Z,967.87
2017-10-11T13:39:45.056Z,967.85
2017-10-11T13:40:54.430Z,967.87
2017-10-11T13:42:03.450Z,967.85
2017-10-11T13:43:12.806Z,967.82
2017-10-11T13:44:21.832Z,967.88
2017-10-11T13:45:31.192Z,967.85
2017-10-11T13:46:40.551Z,967.83
2017-10-11T13:47:49.253Z,967.8
2017-10-11T13:48:58.609Z,967.85
2017-10-11T13:59:46.963Z,967.73
2017-10-11T14:00:55.660Z,967.72
2017-10-11T14:02:04.355Z,967.71
2017-10-11T14:03:13.051Z,967.71
2017-10-11T14:04:22.084Z,967.73
2017-10-11T14:05:30.786Z,967.75
2017-10-11T14:06:40.151Z,967.69
2017-10-11T14:07:49.182Z,967.72
2017-10-11T14:08:58.552Z,967.67
2017-10-11T14:10:07.584Z,967.71
2017-10-11T14:11:16.951Z,967.63
2017-10-11T14:12:26.307Z,967.68
2017-10-11T14:13:36.003Z,967.64
2017-10-11T14:14:44.703Z,967.63
2017-10-11T14:15:53.400Z,967.59
2017-10-11T14:17:02.763Z,967.6
2017-10-11T14:18:12.129Z,967.63
2017-10-11T14:19:21.166Z,967.59
2017-10-11T14:20:30.197Z,967.6
2017-10-11T14:21:39.903Z,967.61
2017-10-11T14:22:48.935Z,967.54
2017-10-11T14:23:58.957Z,967.55
2017-10-11T14:25:07.989Z,967.54
2017-10-11T14:26:17.349Z,967.55
2017-10-11T14:27:26.063Z,967.51
2017-10-11T14:28:35.102Z,967.54
2017-10-11T14:29:44.139Z,967.55
2017-10-11T14:30:53.493Z,967.52
2017-10-11T14:32:02.524Z,967.56
2017-10-11T14:33:11.222Z,967.52
2017-10-11T14:34:20.275Z,967.53
2017-10-11T14:35:28.973Z,967.53